createdAt,value
2018-05-24T00:00:07.785Z,22.80
2018-05-24T00:02:33.928Z,22.80
2018-05-24T00:05:00.113Z,22.80
2018-05-24T00:07:26.248Z,22.80
2018-05-24T00:09:52.412Z,22.80
2018-05-24T00:12:18.640Z,22.80
2018-05-24T00:14:44.829Z,22.80
2018-05-24T00:17:10.985Z,22.80
2018-05-24T00:19:37.164Z,22.80
2018-05-24T00:22:03.387Z,22.80
2018-05-24T00:24:29.584Z,22.80
2018-05-24T00:26:55.768Z,22.70
2018-05-24T00:29:21.910Z,22.70
2018-05-24T00:32:12.490Z,22.70
2018-05-24T00:34:46.579Z,22.60
2018-05-24T00:37:12.728Z,22.70
2018-05-24T00:39:38.943Z,22.70
2018-05-24T00:42:05.184Z,22.60
2018-05-24T00:44:31.327Z,22.60
2018-05-24T00:46:57.515Z,22.60
2018-05-24T00:49:23.691Z,22.50
2018-05-24T00:51:49.860Z,22.50
2018-05-24T00:54:16.063Z,22.60
2018-05-24T00:56:43.053Z,22.50
2018-05-24T00:59:09.209Z,22.40
2018-05-24T01:01:35.432Z,22.50
2018-05-24T01:04:02.029Z,22.50
2018-05-24T01:06:28.926Z,22.40
2018-05-24T01:08:55.115Z,22.40
2018-05-24T01:11:21.278Z,22.50
2018-05-24T01:13:47.479Z,22.40
2018-05-24T01:16:13.685Z,22.40
2018-05-24T01:18:39.853Z,22.40
2018-05-24T01:21:06.779Z,22.40
2018-05-24T01:23:33.028Z,22.30
2018-05-24T01:25:59.193Z,22.40
2018-05-24T01:28:26.144Z,22.30
2018-05-24T01:30:52.340Z,22.20
2018-05-24T01:33:18.505Z,22.30
2018-05-24T01:35:45.399Z,22.30
2018-05-24T01:38:11.548Z,22.20
2018-05-24T01:40:37.717Z,22.30
2018-05-24T01:43:04.609Z,22.20
2018-05-24T01:45:30.801Z,22.10
2018-05-24T01:47:57.705Z,22.20
2018-05-24T01:50:23.889Z,22.10
2018-05-24T01:52:50.845Z,22.20
2018-05-24T01:55:17.025Z,22.10
2018-05-24T01:57:43.192Z,22.10
2018-05-24T02:00:10.122Z,22.00
2018-05-24T02:02:37.644Z,22.00
2018-05-24T02:05:04.381Z,22.00
2018-05-24T02:07:30.566Z,22.00
2018-05-24T02:09:56.725Z,21.90
2018-05-24T02:12:23.624Z,21.80
2018-05-24T02:14:49.813Z,21.80
2018-05-24T02:17:16.001Z,21.80
2018-05-24T02:19:42.237Z,21.70
2018-05-24T02:22:08.459Z,21.70
2018-05-24T02:24:34.624Z,21.70
2018-05-24T02:27:00.821Z,21.60
2018-05-24T02:29:27.002Z,21.60
2018-05-24T02:31:54.653Z,21.50
2018-05-24T02:34:20.897Z,21.50
2018-05-24T02:36:47.053Z,21.50
2018-05-24T02:39:13.237Z,21.40
2018-05-24T02:41:39.472Z,21.40
2018-05-24T02:44:05.650Z,21.40
2018-05-24T02:46:33.097Z,21.40
2018-05-24T02:49:00.041Z,21.30
2018-05-24T02:51:26.213Z,21.30
2018-05-24T02:53:52.369Z,21.30
2018-05-24T02:56:18.644Z,21.30
2018-05-24T02:58:46.233Z,21.30
2018-05-24T03:01:13.151Z,21.20
2018-05-24T03:03:39.345Z,21.20
2018-05-24T03:06:05.534Z,21.20
2018-05-24T03:08:31.761Z,21.20
2018-05-24T03:10:57.902Z,21.20
2018-05-24T03:13:24.819Z,21.10
2018-05-24T03:15:51.031Z,21.10
2018-05-24T03:18:17.231Z,21.10
2018-05-24T03:20:44.128Z,21.00
2018-05-24T03:23:11.099Z,21.00
2018-05-24T03:25:37.254Z,21.00
2018-05-24T03:28:03.449Z,21.00
2018-05-24T03:30:31.079Z,21.00
2018-05-24T03:32:57.277Z,21.00
2018-05-24T03:35:23.455Z,20.90
2018-05-24T03:37:49.643Z,20.90
2018-05-24T03:40:15.798Z,20.90
2018-05-24T03:42:42.790Z,20.90
2018-05-24T03:45:09.761Z,20.80
2018-05-24T03:47:35.933Z,20.80
2018-05-24T03:50:02.832Z,20.80
2018-05-24T03:52:29.006Z,20.80
2018-05-24T03:54:56.032Z,20.80
2018-05-24T03:57:22.236Z,20.70
2018-05-24T04:00:15.713Z,20.80
2018-05-24T04:03:00.692Z,20.80
2018-05-24T04:05:26.870Z,20.80
2018-05-24T04:07:53.035Z,20.80
2018-05-24T04:10:19.273Z,20.70
2018-05-24T04:12:45.454Z,20.70
2018-05-24T04:15:12.361Z,20.70
2018-05-24T04:17:38.545Z,20.70
2018-05-24T04:20:06.194Z,20.70
2018-05-24T04:22:32.383Z,20.70
2018-05-24T04:24:58.633Z,20.70
2018-05-24T04:27:24.831Z,20.70
2018-05-24T04:29:51.069Z,20.70
2018-05-24T04:32:17.234Z,20.70
2018-05-24T04:34:43.480Z,20.70
2018-05-24T04:37:09.650Z,20.70
2018-05-24T04:39:36.604Z,20.70
2018-05-24T04:42:02.785Z,20.70
2018-05-24T04:44:28.975Z,20.70
2018-05-24T04:46:57.068Z,20.70
2018-05-24T04:49:23.257Z,20.70
2018-05-24T04:51:49.447Z,20.70
2018-05-24T04:54:15.621Z,20.80
2018-05-24T04:56:42.571Z,20.80
2018-05-24T04:59:08.785Z,20.80
2018-05-24T05:01:34.963Z,20.80
2018-05-24T05:04:01.120Z,20.80
2018-05-24T05:06:27.381Z,20.80
2018-05-24T05:08:53.558Z,20.80
2018-05-24T05:11:19.725Z,20.90
2018-05-24T05:13:46.977Z,20.90
2018-05-24T05:16:13.161Z,20.90
2018-05-24T05:18:39.340Z,20.90
2018-05-24T05:21:05.979Z,21.00
2018-05-24T05:23:32.152Z,21.00
2018-05-24T05:25:58.325Z,21.10
2018-05-24T05:28:24.524Z,21.10
2018-05-24T05:30:50.677Z,21.20
2018-05-24T05:33:16.837Z,21.20
2018-05-24T05:35:43.770Z,21.40
2018-05-24T05:38:10.045Z,21.30
2018-05-24T05:40:36.170Z,21.40
2018-05-24T05:43:02.414Z,21.50
2018-05-24T05:45:28.581Z,21.60
2018-05-24T05:47:54.757Z,21.70
2018-05-24T05:50:21.647Z,21.90
2018-05-24T05:52:47.854Z,21.80
2018-05-24T05:55:14.083Z,22.00
2018-05-24T05:57:41.033Z,22.30
2018-05-24T06:00:07.256Z,22.30
2018-05-24T06:02:33.444Z,22.50
2018-05-24T06:04:59.601Z,22.70
2018-05-24T06:07:27.245Z,23.00
2018-05-24T06:09:53.438Z,23.00
2018-05-24T06:12:19.601Z,23.20
2018-05-24T06:14:45.769Z,23.30
2018-05-24T06:17:11.969Z,23.30
2018-05-24T06:19:38.188Z,23.40
2018-05-24T06:22:04.861Z,23.40
2018-05-24T06:24:31.069Z,23.40
2018-05-24T06:26:57.280Z,23.40
2018-05-24T06:29:23.469Z,23.40
2018-05-24T06:31:49.641Z,23.40
2018-05-24T06:34:16.542Z,23.40
2018-05-24T06:36:42.725Z,23.40
2018-05-24T06:39:09.755Z,23.40
2018-05-24T06:41:35.921Z,23.40
2018-05-24T06:44:02.130Z,23.40
2018-05-24T06:46:28.372Z,23.40
2018-05-24T06:48:54.499Z,23.40
2018-05-24T06:51:21.429Z,23.40
2018-05-24T06:53:47.624Z,23.30
2018-05-24T06:56:13.789Z,23.40
2018-05-24T06:58:39.985Z,23.50
2018-05-24T07:01:09.361Z,23.60
2018-05-24T07:03:36.261Z,23.80
2018-05-24T07:06:02.528Z,23.80
2018-05-24T07:08:28.668Z,24.00
2018-05-24T07:10:54.845Z,24.30
2018-05-24T07:13:21.121Z,24.40
2018-05-24T07:15:47.273Z,24.60
2018-05-24T07:18:14.180Z,25.00
2018-05-24T07:20:40.394Z,25.00
2018-05-24T07:23:07.421Z,25.20
2018-05-24T07:25:33.595Z,25.40
2018-05-24T07:27:59.855Z,25.50
2018-05-24T07:30:26.043Z,25.70
2018-05-24T07:32:52.193Z,25.80
2018-05-24T07:35:18.394Z,26.00
2018-05-24T07:37:44.555Z,26.20
2018-05-24T07:40:10.717Z,26.40
2018-05-24T07:42:36.905Z,26.60
2018-05-24T07:45:03.140Z,26.90
2018-05-24T07:47:29.302Z,27.10
2018-05-24T07:49:55.497Z,27.30
2018-05-24T07:52:22.432Z,27.80
2018-05-24T07:54:49.521Z,28.00
2018-05-24T07:57:15.636Z,27.90
2018-05-24T07:59:41.842Z,28.20
2018-05-24T08:02:08.000Z,28.40
2018-05-24T08:04:34.181Z,28.60
2018-05-24T08:07:00.369Z,28.90
2018-05-24T08:09:27.265Z,29.50
2018-05-24T08:11:53.475Z,29.40
2018-05-24T08:14:19.649Z,29.70
2018-05-24T08:16:45.841Z,29.90
2018-05-24T08:19:11.994Z,30.10
2018-05-24T08:21:38.172Z,30.20
2018-05-24T08:24:05.921Z,30.20
2018-05-24T08:26:32.137Z,30.20
2018-05-24T08:29:05.249Z,30.20
2018-05-24T08:31:32.243Z,30.00
2018-05-24T08:33:58.425Z,30.00
2018-05-24T08:36:24.582Z,29.90
2018-05-24T08:38:50.733Z,29.80
2018-05-24T08:41:23.997Z,29.70
2018-05-24T08:43:50.201Z,29.60
2018-05-24T08:46:16.413Z,29.50
2018-05-24T08:48:42.593Z,29.50
2018-05-24T08:51:08.757Z,29.50
2018-05-24T08:53:35.680Z,29.60
2018-05-24T08:56:01.842Z,29.60
2018-05-24T08:58:28.731Z,29.70
2018-05-24T09:00:54.909Z,29.70
2018-05-24T09:03:21.820Z,29.90
2018-05-24T09:05:47.991Z,29.90
2018-05-24T09:08:14.144Z,30.10
2018-05-24T09:10:40.305Z,30.20
2018-05-24T09:13:06.490Z,30.40
2018-05-24T09:15:32.691Z,30.60
2018-05-24T09:17:58.873Z,30.80
2018-05-24T09:20:25.041Z,30.90
2018-05-24T09:22:51.196Z,31.10
2018-05-24T09:25:17.770Z,31.30
2018-05-24T09:27:51.697Z,31.50
2018-05-24T09:30:17.897Z,31.50
2018-05-24T09:32:44.081Z,31.60
2018-05-24T09:35:10.269Z,31.80
2018-05-24T09:37:37.034Z,31.90
2018-05-24T09:40:03.913Z,32.10
2018-05-24T09:42:30.073Z,32.10
2018-05-24T09:44:56.239Z,32.30
2018-05-24T09:47:23.132Z,32.40
2018-05-24T09:49:49.357Z,32.40
2018-05-24T09:52:15.526Z,32.50
2018-05-24T09:54:41.687Z,32.60
2018-05-24T09:57:08.372Z,32.60
2018-05-24T09:59:35.129Z,32.60
2018-05-24T10:02:01.276Z,32.60
2018-05-24T10:04:27.426Z,32.50
2018-05-24T10:06:53.603Z,32.60
2018-05-24T10:09:19.773Z,32.60
2018-05-24T10:11:45.921Z,32.70
2018-05-24T10:14:12.096Z,32.80
2018-05-24T10:16:38.253Z,32.90
2018-05-24T10:19:04.434Z,33.00
2018-05-24T10:21:31.372Z,33.20
2018-05-24T10:23:57.673Z,33.10
2018-05-24T10:26:23.885Z,33.30
2018-05-24T10:28:50.109Z,33.40
2018-05-24T10:31:17.005Z,33.50
2018-05-24T10:33:43.176Z,33.50
2018-05-24T10:36:10.835Z,33.50
2018-05-24T10:38:37.035Z,33.50
2018-05-24T10:41:03.205Z,33.60
2018-05-24T10:43:29.396Z,33.60
2018-05-24T10:45:55.546Z,33.60
2018-05-24T10:48:21.717Z,33.50
2018-05-24T10:50:47.925Z,33.50
2018-05-24T10:53:14.085Z,33.50
2018-05-24T10:55:40.273Z,33.40
2018-05-24T10:58:06.613Z,33.40
2018-05-24T11:00:32.799Z,33.50
2018-05-24T11:02:59.739Z,33.60
2018-05-24T11:05:25.861Z,33.50
2018-05-24T11:07:52.033Z,33.60
2018-05-24T11:10:18.202Z,33.60
2018-05-24T11:12:44.395Z,33.60
2018-05-24T11:15:10.557Z,33.60
2018-05-24T11:17:36.717Z,33.50
2018-05-24T11:20:02.926Z,33.40
2018-05-24T11:22:29.097Z,33.40
2018-05-24T11:24:56.037Z,33.40
2018-05-24T11:27:22.957Z,33.40
2018-05-24T11:29:49.477Z,33.40
2018-05-24T11:32:15.693Z,33.50
2018-05-24T11:34:41.889Z,33.50
2018-05-24T11:37:08.152Z,33.50
2018-05-24T11:39:34.966Z,33.50
2018-05-24T11:42:01.807Z,33.50
2018-05-24T11:44:28.017Z,33.50
2018-05-24T11:46:54.237Z,33.40
2018-05-24T11:49:20.433Z,33.40
2018-05-24T11:51:46.593Z,33.40
2018-05-24T11:54:13.514Z,33.30
2018-05-24T11:56:39.724Z,33.30
2018-05-24T11:59:05.877Z,33.30
2018-05-24T12:01:33.593Z,33.30
2018-05-24T12:03:59.785Z,33.30
2018-05-24T12:06:26.714Z,33.30
2018-05-24T12:08:52.885Z,33.30
2018-05-24T12:11:19.768Z,33.30
2018-05-24T12:13:45.933Z,33.30
2018-05-24T12:16:12.085Z,33.20
2018-05-24T12:18:38.269Z,33.10
2018-05-24T12:21:04.433Z,33.00
2018-05-24T12:23:30.613Z,32.90
2018-05-24T12:25:57.505Z,32.70
2018-05-24T12:28:23.703Z,32.60
2018-05-24T12:30:52.589Z,32.50
2018-05-24T12:33:18.732Z,32.50
2018-05-24T12:35:44.905Z,32.40
2018-05-24T12:38:11.025Z,32.40
2018-05-24T12:40:37.216Z,32.30
2018-05-24T12:43:04.129Z,32.20
2018-05-24T12:45:30.297Z,32.20
2018-05-24T12:47:57.229Z,32.00
2018-05-24T12:50:23.397Z,32.00
2018-05-24T12:52:50.284Z,31.90
2018-05-24T12:55:16.465Z,31.90
2018-05-24T12:57:43.395Z,31.80
2018-05-24T13:00:09.659Z,31.80
2018-05-24T13:02:36.193Z,31.80
2018-05-24T13:05:03.093Z,31.70
2018-05-24T13:07:29.393Z,31.70
2018-05-24T13:09:55.640Z,31.70
2018-05-24T13:12:21.747Z,31.60
2018-05-24T13:14:49.657Z,31.50
2018-05-24T13:17:15.829Z,31.40
2018-05-24T13:19:41.973Z,31.40
2018-05-24T13:22:08.163Z,31.40
2018-05-24T13:24:34.419Z,31.30
2018-05-24T13:27:00.517Z,31.20
2018-05-24T13:29:26.730Z,31.20
2018-05-24T13:31:52.871Z,31.10
2018-05-24T13:34:19.757Z,30.90
2018-05-24T13:36:45.933Z,30.90
2018-05-24T13:39:12.067Z,30.90
2018-05-24T13:41:38.197Z,30.80
2018-05-24T13:44:05.105Z,30.80
2018-05-24T13:46:31.227Z,30.70
2018-05-24T13:48:57.349Z,30.70
2018-05-24T13:51:24.293Z,30.70
2018-05-24T13:53:54.105Z,30.60
2018-05-24T13:56:21.049Z,30.60
2018-05-24T13:58:47.201Z,30.60
2018-05-24T14:01:14.108Z,30.50
2018-05-24T14:03:40.501Z,30.50
2018-05-24T14:06:06.674Z,30.50
2018-05-24T14:08:32.850Z,30.40
2018-05-24T14:10:59.808Z,30.20
2018-05-24T14:13:26.001Z,30.20
2018-05-24T14:15:52.904Z,30.00
2018-05-24T14:18:19.029Z,30.00
2018-05-24T14:20:45.154Z,29.90
2018-05-24T14:23:11.865Z,29.80
2018-05-24T14:25:38.771Z,29.60
2018-05-24T14:28:04.893Z,29.60
2018-05-24T14:30:31.769Z,29.40
2018-05-24T14:32:57.970Z,29.30
2018-05-24T14:35:24.105Z,29.30
2018-05-24T14:37:50.282Z,29.20
2018-05-24T14:40:16.405Z,29.20
2018-05-24T14:42:42.561Z,29.10
2018-05-24T14:45:08.714Z,29.10
2018-05-24T14:47:35.621Z,29.00
2018-05-24T14:50:01.823Z,28.90
2018-05-24T14:52:28.023Z,28.90
2018-05-24T14:54:54.166Z,28.80
2018-05-24T14:57:20.353Z,28.80
2018-05-24T14:59:46.574Z,28.70
2018-05-24T15:02:12.761Z,28.60
2018-05-24T15:04:39.100Z,28.60
2018-05-24T15:07:06.025Z,28.50
2018-05-24T15:09:33.097Z,28.40
2018-05-24T15:12:00.028Z,28.50
2018-05-24T15:14:27.662Z,28.40
2018-05-24T15:16:53.784Z,28.40
2018-05-24T15:19:19.974Z,28.40
2018-05-24T15:21:46.153Z,28.40
2018-05-24T15:24:12.372Z,28.30
2018-05-24T15:26:38.621Z,28.30
2018-05-24T15:29:04.825Z,28.20
2018-05-24T15:31:31.724Z,28.20
2018-05-24T15:33:57.864Z,28.20
2018-05-24T15:36:23.993Z,28.20
2018-05-24T15:38:50.169Z,28.20
2018-05-24T15:41:17.297Z,28.10
2018-05-24T15:43:44.236Z,28.10
2018-05-24T15:46:10.405Z,28.00
2018-05-24T15:48:36.565Z,28.00
2018-05-24T15:51:09.738Z,28.00
2018-05-24T15:53:36.625Z,27.90
2018-05-24T15:56:02.772Z,27.90
2018-05-24T15:58:30.723Z,27.90
2018-05-24T16:00:57.005Z,27.80
2018-05-24T16:03:23.986Z,27.80
2018-05-24T16:05:51.281Z,27.70
2018-05-24T16:08:17.441Z,27.70
2018-05-24T16:10:43.602Z,27.70
2018-05-24T16:13:10.548Z,27.60
2018-05-24T16:15:36.735Z,27.60
2018-05-24T16:18:02.919Z,27.60
2018-05-24T16:20:29.045Z,27.60
2018-05-24T16:22:55.153Z,27.50
2018-05-24T16:25:22.161Z,27.50
2018-05-24T16:27:48.524Z,27.40
2018-05-24T16:30:14.630Z,27.50
2018-05-24T16:32:40.781Z,27.50
2018-05-24T16:35:06.907Z,27.40
2018-05-24T16:37:33.886Z,27.40
2018-05-24T16:40:00.013Z,27.30
2018-05-24T16:42:26.240Z,27.30
2018-05-24T16:44:52.437Z,27.30
2018-05-24T16:47:18.609Z,27.30
2018-05-24T16:49:44.744Z,27.30
2018-05-24T16:52:10.874Z,27.20
2018-05-24T16:54:37.009Z,27.10
2018-05-24T16:57:03.918Z,27.00
2018-05-24T16:59:30.167Z,27.00
2018-05-24T17:01:56.334Z,27.00
2018-05-24T17:04:22.505Z,26.90
2018-05-24T17:06:49.373Z,26.90
2018-05-24T17:09:15.543Z,26.90
2018-05-24T17:11:42.542Z,26.80
2018-05-24T17:14:10.689Z,26.80
2018-05-24T17:16:36.836Z,26.70
2018-05-24T17:19:03.040Z,26.70
2018-05-24T17:21:29.211Z,26.70
2018-05-24T17:23:55.453Z,26.70
2018-05-24T17:26:22.523Z,26.60
2018-05-24T17:28:48.673Z,26.60
2018-05-24T17:31:14.865Z,26.60
2018-05-24T17:33:41.002Z,26.50
2018-05-24T17:36:07.878Z,26.50
2018-05-24T17:38:34.029Z,26.40
2018-05-24T17:41:00.372Z,26.50
2018-05-24T17:43:26.562Z,26.40
2018-05-24T17:45:53.533Z,26.40
2018-05-24T17:48:21.273Z,26.30
2018-05-24T17:50:47.452Z,26.30
2018-05-24T17:53:13.576Z,26.30
2018-05-24T17:55:39.704Z,26.20
2018-05-24T17:58:05.895Z,26.20
2018-05-24T18:00:32.137Z,26.10
2018-05-24T18:02:58.668Z,26.10
2018-05-24T18:05:24.880Z,26.10
2018-05-24T18:07:51.209Z,26.00
2018-05-24T18:10:18.127Z,26.00
2018-05-24T18:12:44.281Z,25.90
2018-05-24T18:15:10.440Z,25.90
2018-05-24T18:17:36.754Z,25.90
2018-05-24T18:20:02.919Z,25.90
2018-05-24T18:22:29.133Z,25.80
2018-05-24T18:24:55.352Z,25.80
2018-05-24T18:27:21.607Z,25.70
2018-05-24T18:29:47.905Z,25.70
2018-05-24T18:32:14.123Z,25.70
2018-05-24T18:34:41.057Z,25.60
2018-05-24T18:37:08.042Z,25.50
2018-05-24T18:39:35.021Z,25.50
2018-05-24T18:42:01.163Z,25.50
2018-05-24T18:44:27.332Z,25.50
2018-05-24T18:46:54.194Z,25.40
2018-05-24T18:49:21.075Z,25.30
2018-05-24T18:51:47.277Z,25.30
2018-05-24T18:54:13.455Z,25.30
2018-05-24T18:56:39.591Z,25.30
2018-05-24T18:59:05.817Z,25.20
2018-05-24T19:01:31.957Z,25.20
2018-05-24T19:03:58.210Z,25.10
2018-05-24T19:06:24.403Z,25.10
2018-05-24T19:08:50.557Z,25.10
2018-05-24T19:11:17.007Z,25.00
2018-05-24T19:13:43.214Z,25.00
2018-05-24T19:16:09.369Z,25.00
2018-05-24T19:18:35.532Z,24.90
2018-05-24T19:21:01.710Z,24.90
2018-05-24T19:23:27.915Z,24.90
2018-05-24T19:25:54.814Z,24.90
2018-05-24T19:28:20.962Z,24.80
2018-05-24T19:30:47.333Z,24.80
2018-05-24T19:33:13.537Z,24.80
2018-05-24T19:35:39.723Z,24.80
2018-05-24T19:38:06.625Z,24.80
2018-05-24T19:40:32.821Z,24.70
2018-05-24T19:42:58.960Z,24.80
2018-05-24T19:45:25.173Z,24.70
2018-05-24T19:47:51.419Z,24.70
2018-05-24T19:50:17.664Z,24.60
2018-05-24T19:52:43.861Z,24.60
2018-05-24T19:55:10.796Z,24.60
2018-05-24T19:57:37.705Z,24.50
2018-05-24T20:00:03.909Z,24.50
2018-05-24T20:02:30.038Z,24.50
2018-05-24T20:04:56.377Z,24.40
2018-05-24T20:07:22.541Z,24.40
2018-05-24T20:09:48.687Z,24.40
2018-05-24T20:12:15.601Z,24.30
2018-05-24T20:14:41.783Z,24.30
2018-05-24T20:17:07.934Z,24.30
2018-05-24T20:19:34.813Z,24.20
2018-05-24T20:22:00.937Z,24.10
2018-05-24T20:24:27.065Z,24.10
2018-05-24T20:26:53.249Z,24.10
2018-05-24T20:29:19.432Z,24.00
2018-05-24T20:31:45.639Z,24.00
2018-05-24T20:34:12.550Z,23.90
2018-05-24T20:36:39.584Z,23.80
2018-05-24T20:39:05.729Z,23.80
2018-05-24T20:41:31.913Z,23.80
2018-05-24T20:43:58.807Z,23.70
2018-05-24T20:46:25.726Z,23.60
2018-05-24T20:48:52.676Z,23.60
2018-05-24T20:51:19.549Z,23.60
2018-05-24T20:53:45.701Z,23.50
2018-05-24T20:56:11.874Z,23.50
2018-05-24T20:58:38.068Z,23.50
2018-05-24T21:01:04.243Z,23.30
2018-05-24T21:03:31.139Z,23.30
2018-05-24T21:05:57.288Z,23.20
2018-05-24T21:08:23.437Z,23.20
2018-05-24T21:10:49.985Z,23.20
2018-05-24T21:13:16.128Z,23.10
2018-05-24T21:15:43.061Z,23.10
2018-05-24T21:18:09.262Z,23.10
2018-05-24T21:20:35.424Z,23.00
2018-05-24T21:23:01.649Z,23.00
2018-05-24T21:25:27.793Z,23.00
2018-05-24T21:27:53.942Z,22.90
2018-05-24T21:30:20.161Z,22.90
2018-05-24T21:32:46.301Z,22.90
2018-05-24T21:35:12.473Z,22.80
2018-05-24T21:37:38.645Z,22.80
2018-05-24T21:40:04.797Z,22.80
2018-05-24T21:42:30.957Z,22.70
2018-05-24T21:44:57.884Z,22.70
2018-05-24T21:47:24.833Z,22.70
2018-05-24T21:49:51.301Z,22.60
2018-05-24T21:52:18.712Z,22.60
2018-05-24T21:54:44.857Z,22.50
2018-05-24T21:57:11.001Z,22.60
2018-05-24T21:59:37.204Z,22.50
2018-05-24T22:02:03.386Z,22.50
2018-05-24T22:04:30.357Z,22.40
2018-05-24T22:06:58.061Z,22.30
2018-05-24T22:09:24.256Z,22.40
2018-05-24T22:11:50.440Z,22.40
2018-05-24T22:14:16.585Z,22.40
2018-05-24T22:16:42.722Z,22.30
2018-05-24T22:19:08.920Z,22.30
2018-05-24T22:21:35.606Z,22.30
2018-05-24T22:24:01.777Z,22.30
2018-05-24T22:26:27.979Z,22.20
2018-05-24T22:28:54.168Z,22.20
2018-05-24T22:31:20.312Z,22.20
2018-05-24T22:33:46.562Z,22.20
2018-05-24T22:36:13.508Z,22.10
2018-05-24T22:38:39.877Z,22.10
2018-05-24T22:41:06.047Z,22.10
2018-05-24T22:43:32.201Z,22.10
2018-05-24T22:45:58.397Z,22.00
2018-05-24T22:48:24.589Z,22.00
2018-05-24T22:50:50.757Z,22.00
2018-05-24T22:53:16.939Z,22.00
2018-05-24T22:55:43.097Z,21.90
2018-05-24T22:58:10.553Z,21.90
2018-05-24T23:00:38.898Z,21.80
2018-05-24T23:03:05.122Z,21.80
2018-05-24T23:05:31.309Z,21.90
2018-05-24T23:07:59.223Z,21.80
2018-05-24T23:10:25.430Z,21.80
2018-05-24T23:12:51.677Z,21.80
2018-05-24T23:15:17.907Z,21.80
2018-05-24T23:17:44.069Z,21.80
2018-05-24T23:20:10.269Z,21.80
2018-05-24T23:22:38.249Z,21.70
2018-05-24T23:25:04.397Z,21.70
2018-05-24T23:27:30.562Z,21.70
2018-05-24T23:29:58.209Z,21.60
2018-05-24T23:32:24.424Z,21.60
2018-05-24T23:34:50.598Z,21.70
2018-05-24T23:37:16.798Z,21.60
2018-05-24T23:39:43.971Z,21.60
2018-05-24T23:42:10.173Z,21.60
2018-05-24T23:44:36.357Z,21.60
2018-05-24T23:47:02.550Z,21.60
2018-05-24T23:49:28.717Z,21.60
2018-05-24T23:51:54.922Z,21.60
2018-05-24T23:54:21.118Z,21.60
2018-05-24T23:56:47.312Z,21.60
2018-05-24T23:59:13.690Z,21.60
